Time;durP1;ratioP1;P1;durP2;ratioP2;P2;SDS_P1;SDS_P2;PMS_P1;PMS_P2;Temp;Humidity;BMP_temperature;BMP_pressure;BME280_temperature;BME280_humidity;BME280_pressure;Samples;Min_cycle;Max_cycle;Signal;HPM_P1;HPM_P2
2022/08/02 00:00:19;;;;;;;9.53;6.75;;;;;;;19.67;75.61;99645.98;1847107;77;20914;-73
2022/08/02 00:02:48;;;;;;;9.40;6.47;;;;;;;19.67;75.74;99640.63;1834004;77;20972;-72
2022/08/02 00:05:15;;;;;;;8.38;6.42;;;;;;;19.67;75.68;99644.65;1794669;78;21034;-73
2022/08/02 00:07:44;;;;;;;7.55;6.50;;;;;;;19.67;75.61;99645.16;1794887;79;21922;-73
2022/08/02 00:10:13;;;;;;;12.28;6.42;;;;;;;19.65;75.58;99642.69;1795166;79;20987;-72
2022/08/02 00:12:39;;;;;;;7.70;6.53;;;;;;;19.62;75.50;99635.57;1747570;81;21485;-73
2022/08/02 00:15:09;;;;;;;6.95;6.12;;;;;;;19.60;75.55;99626.40;1785816;78;20952;-73
2022/08/02 00:17:40;;;;;;;6.97;6.27;;;;;;;19.57;75.55;99628.11;1787571;79;20940;-72
2022/08/02 00:20:09;;;;;;;7.05;6.33;;;;;;;19.56;75.44;99628.31;1804488;79;22560;-72
2022/08/02 00:22:37;;;;;;;7.40;6.22;;;;;;;19.52;75.40;99628.37;1804005;78;20991;-72
2022/08/02 00:25:06;;;;;;;9.58;6.40;;;;;;;19.46;75.41;99624.62;1798238;78;20976;-72
2022/08/02 00:27:33;;;;;;;7.78;6.58;;;;;;;19.44;75.43;99624.00;1791898;78;21377;-72
2022/08/02 00:30:00;;;;;;;7.72;6.28;;;;;;;19.41;75.48;99621.22;1803855;78;21075;-73
2022/08/02 00:32:26;;;;;;;7.25;6.20;;;;;;;19.40;75.55;99622.24;1752679;81;21828;-73
2022/08/02 00:34:55;;;;;;;9.55;6.15;;;;;;;19.39;75.52;99621.90;1814987;77;21512;-72
2022/08/02 00:37:21;;;;;;;7.62;6.22;;;;;;;19.37;75.52;99619.94;1804733;78;20976;-72
2022/08/02 00:39:50;;;;;;;6.92;6.15;;;;;;;19.36;75.48;99620.14;1806258;78;21023;-73
2022/08/02 00:42:16;;;;;;;8.28;6.03;;;;;;;19.34;75.58;99622.19;1806356;78;21387;-73
2022/08/02 00:44:43;;;;;;;7.15;5.78;;;;;;;19.33;75.57;99617.86;1798140;78;21830;-72
2022/08/02 00:47:10;;;;;;;9.03;6.03;;;;;;;19.29;75.52;99620.60;1786678;78;21454;-72
2022/08/02 00:49:37;;;;;;;10.25;5.78;;;;;;;19.26;75.50;99611.12;1781031;79;21398;-72
2022/08/02 00:52:04;;;;;;;8.15;5.92;;;;;;;19.24;75.61;99612.34;1776163;79;22124;-72
2022/08/02 00:54:31;;;;;;;7.60;5.60;;;;;;;19.22;75.59;99613.06;1782577;79;21119;-72
2022/08/02 00:56:58;;;;;;;8.68;6.20;;;;;;;19.19;75.62;99609.41;1771479;79;21949;-71
2022/08/02 00:59:25;;;;;;;8.18;6.03;;;;;;;19.19;75.64;99609.41;1778452;79;21030;-73
2022/08/02 01:01:54;;;;;;;9.70;6.30;;;;;;;19.17;75.79;99612.30;1778237;79;21062;-72
2022/08/02 01:04:21;;;;;;;8.50;6.30;;;;;;;19.18;75.98;99611.78;1783743;79;20984;-72
2022/08/02 01:06:49;;;;;;;8.08;6.10;;;;;;;19.19;76.26;99608.08;1781525;78;21478;-71
2022/08/02 01:09:16;;;;;;;8.98;6.20;;;;;;;19.20;76.49;99607.05;1804275;79;21846;-72
2022/08/02 01:11:43;;;;;;;8.95;6.17;;;;;;;19.21;76.57;99596.17;1816606;78;21366;-71
2022/08/02 01:14:14;;;;;;;7.90;6.35;;;;;;;19.22;76.60;99599.16;1800869;78;20991;-71
2022/08/02 01:17:07;;;;;;;9.95;6.58;;;;;;;19.23;76.78;99598.65;1784112;78;20995;-71
2022/08/02 01:19:39;;;;;;;8.60;6.28;;;;;;;19.23;76.95;99600.81;1773987;78;20984;-71
2022/08/02 01:22:29;;;;;;;7.97;6.08;;;;;;;19.24;77.30;99595.77;1758631;80;21865;-71
2022/08/02 01:25:35;;;;;;;8.00;6.30;;;;;;;19.23;77.51;99583.41;1813391;79;20975;-71
2022/08/02 01:28:48;;;;;;;10.32;6.50;;;;;;;19.22;77.70;99587.11;1810649;79;21474;-71
2022/08/02 01:31:43;;;;;;;8.90;6.53;;;;;;;19.23;77.87;99590.10;1817141;79;21452;-71
2022/08/02 01:34:40;;;;;;;7.67;6.50;;;;;;;19.24;77.93;99590.93;1782443;79;21003;-73
2022/08/02 01:37:19;;;;;;;8.18;6.60;;;;;;;19.26;77.99;99592.38;1736223;80;21941;-73
2022/08/02 01:39:49;;;;;;;8.38;6.10;;;;;;;19.26;78.00;99592.38;1774713;79;20952;-72
2022/08/02 01:42:16;;;;;;;7.90;6.05;;;;;;;19.27;77.92;99595.37;1786871;79;20954;-72
2022/08/02 01:44:42;;;;;;;9.85;6.50;;;;;;;19.27;77.85;99590.53;1802089;79;20995;-73
2022/08/02 01:47:16;;;;;;;7.10;6.17;;;;;;;19.27;77.80;99595.88;1786634;79;21129;-73
2022/08/02 01:49:46;;;;;;;6.95;6.25;;;;;;;19.28;77.74;99596.19;1788544;79;22441;-73
2022/08/02 01:52:21;;;;;;;8.18;5.85;;;;;;;19.28;77.72;99593.00;1802336;79;21066;-72
2022/08/02 01:55:09;;;;;;;8.93;6.53;;;;;;;19.28;77.69;99588.98;1773550;79;21545;-72
2022/08/02 01:57:50;;;;;;;8.48;6.40;;;;;;;19.28;77.62;99589.50;1774097;79;21509;-72
2022/08/02 02:00:17;;;;;;;10.38;6.10;;;;;;;19.28;77.60;99589.50;1772386;79;21347;-73
2022/08/02 02:02:46;;;;;;;8.75;6.12;;;;;;;19.26;77.58;99586.20;1773836;79;22235;-72
2022/08/02 02:05:17;;;;;;;7.42;6.00;;;;;;;19.25;77.63;99581.36;1772817;79;21093;-73
2022/08/02 02:07:44;;;;;;;7.22;5.62;;;;;;;19.24;77.61;99578.88;1827456;77;20982;-74
2022/08/02 02:10:14;;;;;;;7.83;5.72;;;;;;;19.23;77.63;99578.56;1846752;77;21413;-73
2022/08/02 02:12:42;;;;;;;9.15;6.10;;;;;;;19.21;77.70;99576.09;1824719;77;21045;-71
2022/08/02 02:15:09;;;;;;;6.25;5.60;;;;;;;19.20;77.65;99570.91;1816430;77;22633;-72
2022/08/02 02:17:36;;;;;;;7.60;6.17;;;;;;;19.19;77.58;99570.09;1820353;77;20978;-72
2022/08/02 02:20:05;;;;;;;9.65;6.28;;;;;;;19.16;77.69;99563.80;1800943;77;21053;-72
2022/08/02 02:22:32;;;;;;;6.45;5.83;;;;;;;19.16;77.84;99565.96;1825191;77;21024;-72
2022/08/02 02:24:58;;;;;;;8.00;6.30;;;;;;;19.16;77.97;99570.48;1833083;77;21017;-72
2022/08/02 02:27:25;;;;;;;8.85;5.83;;;;;;;19.18;78.01;99574.30;1840984;77;21919;-72
2022/08/02 02:29:51;;;;;;;10.08;6.90;;;;;;;19.19;78.11;99578.12;1793936;77;21033;-72
2022/08/02 02:32:18;;;;;;;9.13;6.22;;;;;;;19.23;78.21;99577.23;1845872;77;21483;-73
2022/08/02 02:34:45;;;;;;;11.55;6.15;;;;;;;19.26;78.35;99572.81;1823877;77;20995;-73
2022/08/02 02:37:21;;;;;;;6.65;6.05;;;;;;;19.27;78.39;99571.27;1843525;77;21010;-73
2022/08/02 02:39:51;;;;;;;8.58;5.90;;;;;;;19.30;78.33;99578.92;1836404;77;22771;-74
2022/08/02 02:42:18;;;;;;;7.67;5.85;;;;;;;19.29;78.25;99574.57;1831361;77;20849;-73
2022/08/02 02:44:46;;;;;;;9.10;6.33;;;;;;;19.29;78.23;99572.41;1840386;77;21001;-73
2022/08/02 02:47:14;;;;;;;7.10;6.17;;;;;;;19.28;78.11;99574.26;1827421;77;20970;-73
2022/08/02 02:49:43;;;;;;;8.45;6.25;;;;;;;19.27;77.99;99572.61;1806168;77;21026;-73
2022/08/02 02:52:09;;;;;;;7.60;6.12;;;;;;;19.26;77.93;99574.15;1814523;77;21872;-73
2022/08/02 02:54:36;;;;;;;9.75;5.97;;;;;;;19.28;77.96;99570.75;1813868;77;20981;-72
2022/08/02 02:57:04;;;;;;;7.85;6.03;;;;;;;19.29;78.06;99571.06;1814317;77;21413;-72
2022/08/02 02:59:33;;;;;;;8.03;6.08;;;;;;;19.30;78.15;99572.23;1803778;77;21004;-72
2022/08/02 03:02:00;;;;;;;10.05;6.70;;;;;;;19.32;78.22;99562.66;1819435;77;21065;-73
2022/08/02 03:04:27;;;;;;;10.80;6.58;;;;;;;19.32;78.38;99559.98;1835960;77;22025;-72
2022/08/02 03:06:54;;;;;;;9.68;6.80;;;;;;;19.34;78.63;99558.75;1847587;77;20911;-72
2022/08/02 03:09:20;;;;;;;7.62;6.60;;;;;;;19.38;78.86;99553.30;1823659;76;21002;-72
2022/08/02 03:11:47;;;;;;;8.55;6.62;;;;;;;19.43;78.98;99554.06;1765321;80;20984;-73
2022/08/02 03:14:13;;;;;;;8.30;6.80;;;;;;;19.47;79.05;99553.14;1772708;79;21451;-72
2022/08/02 03:16:46;;;;;;;7.05;6.30;;;;;;;19.53;79.13;99556.38;1798487;79;21806;-72
2022/08/02 03:19:12;;;;;;;8.70;6.90;;;;;;;19.58;79.14;99552.59;1767203;80;21395;-72
2022/08/02 03:21:42;;;;;;;7.62;6.37;;;;;;;19.62;79.20;99557.37;1775725;79;20999;-72
2022/08/02 03:24:08;;;;;;;11.15;7.05;;;;;;;19.63;79.24;99549.64;1819574;76;21004;-72
2022/08/02 03:26:35;;;;;;;8.20;6.90;;;;;;;19.66;79.36;99554.59;1842955;77;20985;-71
2022/08/02 03:29:02;;;;;;;11.03;6.97;;;;;;;19.70;79.58;99559.87;1816391;76;22885;-72
2022/08/02 03:31:29;;;;;;;10.00;6.60;;;;;;;19.72;79.77;99559.16;1819844;77;21053;-72
2022/08/02 03:33:56;;;;;;;11.00;6.97;;;;;;;19.76;79.95;99568.13;1823337;77;20990;-72
2022/08/02 03:36:23;;;;;;;10.20;7.03;;;;;;;19.79;80.05;99569.91;1843234;77;20978;-72
2022/08/02 03:38:50;;;;;;;8.55;6.72;;;;;;;19.85;80.14;99569.08;1848228;77;20973;-72
2022/08/02 03:41:17;;;;;;;9.65;7.15;;;;;;;19.90;80.20;99569.32;1820031;76;21885;-72
2022/08/02 03:43:45;;;;;;;8.65;6.80;;;;;;;19.92;80.20;99567.26;1816395;77;20974;-72
2022/08/02 03:46:17;;;;;;;11.08;7.05;;;;;;;19.96;80.23;99567.67;1844255;76;21020;-72
2022/08/02 03:48:44;;;;;;;10.05;6.60;;;;;;;20.01;80.16;99575.42;1819812;77;21013;-72
2022/08/02 03:51:10;;;;;;;9.25;7.22;;;;;;;20.06;80.14;99580.69;1847152;76;20989;-72
2022/08/02 03:53:37;;;;;;;7.92;6.85;;;;;;;20.09;80.06;99591.03;1832211;77;21904;-72
2022/08/02 03:56:05;;;;;;;9.93;6.90;;;;;;;20.12;80.04;99584.73;1826755;77;20913;-72
2022/08/02 03:58:32;;;;;;;11.35;6.53;;;;;;;20.19;80.00;99586.09;1847712;77;21445;-72
2022/08/02 04:00:58;;;;;;;10.08;6.92;;;;;;;20.23;79.98;99577.94;1846794;77;20931;-72
2022/08/02 04:03:25;;;;;;;8.65;7.22;;;;;;;20.26;79.96;99571.64;1849360;77;20995;-72
2022/08/02 04:05:51;;;;;;;7.72;6.30;;;;;;;20.32;79.91;99570.02;1827617;77;21936;-72
2022/08/02 04:08:18;;;;;;;7.83;7.10;;;;;;;20.39;79.86;99565.50;1818272;76;21017;-72
2022/08/02 04:13:35;;;;;;;8.23;6.70;;;;;;;20.53;79.64;99565.01;1816035;77;21013;-72
2022/08/02 04:16:14;;;;;;;8.28;6.70;;;;;;;20.60;79.54;99558.31;1792565;76;21373;-72
2022/08/02 04:18:45;;;;;;;11.90;6.78;;;;;;;20.63;79.28;99562.73;1842961;77;22683;-72
2022/08/02 04:21:14;;;;;;;8.05;6.62;;;;;;;20.69;79.11;99567.29;1847390;77;22582;-72
2022/08/02 04:23:41;;;;;;;7.58;6.47;;;;;;;20.76;78.89;99568.64;1823331;77;20970;-72
2022/08/02 04:26:07;;;;;;;10.15;6.03;;;;;;;20.82;78.49;99571.30;1836470;77;21088;-72
2022/08/02 04:28:34;;;;;;;7.17;6.15;;;;;;;20.87;78.04;99576.05;1820391;77;20978;-72
2022/08/02 04:31:01;;;;;;;7.17;5.95;;;;;;;20.91;77.66;99577.28;1830627;77;21954;-74
2022/08/02 04:33:28;;;;;;;7.15;6.45;;;;;;;20.97;77.36;99570.27;1841756;77;20931;-73
2022/08/02 04:35:57;;;;;;;8.15;6.50;;;;;;;21.03;76.97;99568.06;1839334;77;21315;-72
2022/08/02 04:38:23;;;;;;;10.25;6.62;;;;;;;21.07;76.66;99566.63;1836715;76;20965;-73
2022/08/02 04:40:54;;;;;;;10.03;6.50;;;;;;;21.11;76.50;99565.17;1839719;76;20982;-73
2022/08/02 04:43:20;;;;;;;13.08;6.58;;;;;;;21.17;76.40;99568.37;1816634;77;22149;-73
2022/08/02 04:45:53;;;;;;;8.95;6.67;;;;;;;21.21;76.13;99574.95;1823662;77;21034;-72
2022/08/02 04:48:20;;;;;;;8.23;6.62;;;;;;;21.23;75.98;99573.39;1840331;77;21028;-72
2022/08/02 04:50:47;;;;;;;8.28;6.75;;;;;;;21.23;75.92;99573.39;1834095;77;21081;-73
2022/08/02 04:53:13;;;;;;;10.90;6.58;;;;;;;21.25;75.89;99575.38;1846855;76;20965;-72
2022/08/02 04:55:40;;;;;;;9.58;7.28;;;;;;;21.29;75.97;99577.97;1817158;77;22394;-72
2022/08/02 04:58:06;;;;;;;8.63;7.03;;;;;;;21.32;75.84;99574.85;1817361;77;20983;-73
2022/08/02 05:00:33;;;;;;;9.23;6.90;;;;;;;21.34;75.77;99565.57;1839826;76;20926;-72
2022/08/02 05:03:00;;;;;;;11.20;7.05;;;;;;;21.36;75.73;99567.52;1824520;77;21112;-72
2022/08/02 05:05:27;;;;;;;11.28;6.62;;;;;;;21.40;75.78;99563.36;1830867;77;20970;-73
2022/08/02 05:07:54;;;;;;;10.38;6.67;;;;;;;21.43;75.70;99559.45;1844679;76;21815;-73
2022/08/02 05:10:21;;;;;;;8.15;6.58;;;;;;;21.47;75.69;99560.66;1831626;76;20965;-73
2022/08/02 05:12:47;;;;;;;10.70;7.28;;;;;;;21.52;75.57;99551.46;1846888;76;21393;-73
2022/08/02 05:15:17;;;;;;;7.25;6.10;;;;;;;21.54;75.42;99544.53;1836667;77;21057;-72
2022/08/02 05:17:45;;;;;;;8.85;6.53;;;;;;;21.58;75.10;99547.91;1835299;77;21013;-73
2022/08/02 05:20:16;;;;;;;8.65;6.12;;;;;;;21.63;74.63;99545.94;1820449;76;22002;-73
2022/08/02 05:22:40;;;;;;;8.13;6.60;;;;;;;21.64;74.39;99544.37;1825498;77;20982;-73
2022/08/02 05:25:08;;;;;;;8.73;6.35;;;;;;;21.66;74.11;99544.98;1832163;77;20920;-73
2022/08/02 05:27:35;;;;;;;7.92;6.35;;;;;;;21.68;73.62;99546.10;1817622;77;20954;-73
2022/08/02 05:30:02;;;;;;;7.67;5.80;;;;;;;21.69;73.54;99537.82;1822434;76;20974;-72
2022/08/02 05:32:30;;;;;;;6.53;5.75;;;;;;;21.78;73.48;99540.27;1822964;77;21936;-72
2022/08/02 05:34:56;;;;;;;8.43;6.20;;;;;;;21.84;72.99;99545.62;1828945;76;20918;-72
2022/08/02 05:37:22;;;;;;;6.28;5.67;;;;;;;21.87;72.69;99551.08;1812527;76;21090;-72
2022/08/02 05:39:49;;;;;;;8.30;6.10;;;;;;;21.94;72.67;99549.19;1819199;77;21013;-72
2022/08/02 05:42:15;;;;;;;8.88;5.58;;;;;;;22.02;72.35;99552.14;1840731;76;21101;-72
2022/08/02 05:44:42;;;;;;;6.42;5.62;;;;;;;22.12;72.04;99561.94;1837149;77;22466;-72
2022/08/02 05:47:09;;;;;;;6.55;5.85;;;;;;;22.17;71.72;99558.89;1825169;76;21007;-71
2022/08/02 05:49:35;;;;;;;7.22;5.62;;;;;;;22.23;71.45;99560.72;1847753;77;20981;-71
2022/08/02 05:52:15;;;;;;;6.05;5.42;;;;;;;22.30;71.10;99559.86;1832804;76;21019;-71
2022/08/02 05:54:55;;;;;;;9.90;5.58;;;;;;;22.35;70.91;99566.74;1846154;76;20997;-72
2022/08/02 05:57:49;;;;;;;7.55;5.80;;;;;;;22.40;70.45;99566.93;1842828;77;21805;-71
2022/08/02 06:00:16;;;;;;;6.83;3.72;;;;;;;22.46;70.31;99573.59;1830425;77;21341;-72
2022/08/02 06:03:00;;;;;;;7.65;5.37;;;;;;;22.54;70.33;99581.39;1827391;77;21428;-71
2022/08/02 06:05:30;;;;;;;7.95;5.53;;;;;;;22.61;70.30;99581.87;1824489;77;21551;-72
2022/08/02 06:07:58;;;;;;;8.43;5.55;;;;;;;22.64;69.95;99589.50;1779326;79;20950;-72
2022/08/02 06:10:26;;;;;;;6.33;5.30;;;;;;;22.68;69.33;99595.59;1787322;79;22453;-72
2022/08/02 06:13:12;;;;;;;8.30;5.58;;;;;;;22.72;69.15;99590.58;1789943;79;20992;-71
2022/08/02 06:15:39;;;;;;;8.63;5.58;;;;;;;22.78;68.79;99594.58;1816301;78;21006;-71
2022/08/02 06:18:06;;;;;;;8.60;5.55;;;;;;;22.77;68.39;99595.59;1822766;78;21361;-72
2022/08/02 06:20:34;;;;;;;8.78;5.70;;;;;;;22.78;68.45;99587.02;1820764;78;21476;-72
2022/08/02 06:23:04;;;;;;;8.73;6.20;;;;;;;22.81;68.63;99594.12;1799000;78;22521;-73
2022/08/02 06:25:32;;;;;;;8.03;6.05;;;;;;;22.83;68.74;99594.72;1814606;78;21065;-72
2022/08/02 06:28:00;;;;;;;7.70;6.03;;;;;;;22.79;68.64;99598.09;1788743;79;21082;-72
2022/08/02 06:30:27;;;;;;;12.88;6.40;;;;;;;22.71;68.78;99598.36;1806845;78;20997;-71
2022/08/02 06:32:54;;;;;;;9.05;6.15;;;;;;;22.67;68.89;99595.78;1822816;77;20947;-71
2022/08/02 06:35:21;;;;;;;9.10;5.90;;;;;;;22.63;68.91;99596.75;1763487;80;21913;-73
2022/08/02 06:37:54;;;;;;;8.23;5.72;;;;;;;22.59;69.14;99596.08;1760641;80;21061;-72
2022/08/02 06:40:36;;;;;;;10.58;6.05;;;;;;;22.53;69.39;99595.08;1796134;79;20981;-73
2022/08/02 06:43:33;;;;;;;6.30;5.45;;;;;;;22.54;69.69;99598.06;1760882;80;21473;-73
2022/08/02 06:46:01;;;;;;;8.90;5.58;;;;;;;22.53;69.72;99599.94;1804121;78;21002;-73
2022/08/02 06:48:29;;;;;;;12.13;6.33;;;;;;;22.60;69.99;99599.08;1807749;78;21997;-72
2022/08/02 06:50:56;;;;;;;7.72;6.30;;;;;;;22.63;69.96;99598.63;1744458;80;21001;-73
2022/08/02 06:53:22;;;;;;;8.10;6.47;;;;;;;22.61;69.94;99600.20;1765767;79;21547;-72
2022/08/02 06:55:48;;;;;;;8.58;6.40;;;;;;;22.60;69.91;99596.37;1784642;77;21019;-73
2022/08/02 06:58:15;;;;;;;7.30;6.40;;;;;;;22.55;69.73;99597.84;1800148;77;20936;-72
2022/08/02 07:00:42;;;;;;;8.68;6.85;;;;;;;22.50;69.56;99596.87;1821406;77;21898;-73
2022/08/02 07:03:09;;;;;;;11.18;6.50;;;;;;;22.45;69.53;99599.38;1811196;78;21022;-72
2022/08/02 07:05:36;;;;;;;9.43;6.25;;;;;;;22.46;69.65;99592.95;1762025;80;21072;-72
2022/08/02 07:08:03;;;;;;;7.15;6.00;;;;;;;22.49;69.62;99591.19;1798383;77;20969;-73
2022/08/02 07:10:30;;;;;;;8.05;5.78;;;;;;;22.54;69.63;99581.92;1835181;77;20982;-73
2022/08/02 07:12:57;;;;;;;7.22;6.12;;;;;;;22.54;69.15;99581.39;1830955;77;21886;-74
2022/08/02 07:15:23;;;;;;;9.10;5.47;;;;;;;22.57;68.99;99582.81;1836159;77;20981;-73
2022/08/02 07:17:50;;;;;;;8.80;5.80;;;;;;;22.61;68.82;99584.05;1837199;77;21028;-74
2022/08/02 07:20:17;;;;;;;7.17;5.42;;;;;;;22.61;68.33;99585.39;1844460;76;21453;-74
2022/08/02 07:22:44;;;;;;;7.97;5.80;;;;;;;22.61;68.18;99586.73;1832356;77;21389;-73
2022/08/02 07:25:11;;;;;;;7.10;5.72;;;;;;;22.64;67.99;99590.33;1830626;77;21787;-72
2022/08/02 07:27:39;;;;;;;9.28;5.87;;;;;;;22.67;67.57;99587.71;1825049;76;21045;-73
2022/08/02 07:30:08;;;;;;;9.30;5.75;;;;;;;22.66;67.42;99585.55;1830122;77;20962;-73
2022/08/02 07:32:35;;;;;;;10.63;6.15;;;;;;;22.68;67.45;99581.28;1821687;77;20954;-73
2022/08/02 07:35:01;;;;;;;7.40;5.53;;;;;;;22.70;67.37;99576.52;1828876;77;21042;-73
2022/08/02 07:37:31;;;;;;;6.47;5.62;;;;;;;22.75;67.40;99584.22;1834813;76;22066;-73
2022/08/02 07:39:58;;;;;;;7.60;5.45;;;;;;;22.81;67.58;99587.39;1846926;77;21494;-73
2022/08/02 07:42:43;;;;;;;10.70;6.00;;;;;;;22.85;67.04;99587.80;1823516;76;22343;-74
2022/08/02 07:45:11;;;;;;;6.87;5.70;;;;;;;22.74;66.61;99585.80;1828589;77;21089;-73
2022/08/02 07:47:40;;;;;;;6.25;5.60;;;;;;;22.69;66.80;99593.72;1839576;77;21005;-73
2022/08/02 07:50:08;;;;;;;12.47;5.70;;;;;;;22.69;67.14;99599.93;1829145;77;21757;-74
2022/08/02 07:52:36;;;;;;;9.85;6.00;;;;;;;22.73;67.24;99605.69;1826453;77;21088;-73
2022/08/02 07:55:04;;;;;;;7.25;5.75;;;;;;;22.76;67.08;99613.31;1826694;77;20993;-73
2022/08/02 07:57:30;;;;;;;6.50;5.90;;;;;;;22.82;67.04;99613.80;1824454;77;21219;-74
2022/08/02 07:59:57;;;;;;;8.00;6.03;;;;;;;22.81;66.40;99617.53;1823774;77;21451;-74
2022/08/02 08:02:24;;;;;;;8.05;5.92;;;;;;;22.78;65.76;99617.46;1835108;77;22533;-74
2022/08/02 08:04:52;;;;;;;8.90;6.08;;;;;;;22.76;65.76;99618.17;1824905;77;21173;-75
2022/08/02 08:07:20;;;;;;;8.58;6.28;;;;;;;22.74;65.92;99624.31;1826973;77;21049;-72
2022/08/02 08:09:49;;;;;;;7.53;6.03;;;;;;;22.74;66.16;99624.83;1837208;77;20959;-75
2022/08/02 08:12:16;;;;;;;7.35;5.80;;;;;;;22.73;66.20;99624.01;1818810;77;20987;-72
2022/08/02 08:14:43;;;;;;;7.70;6.33;;;;;;;22.71;66.73;99625.28;1818493;78;22287;-73
2022/08/02 08:17:10;;;;;;;8.05;6.58;;;;;;;22.74;67.03;99629.69;1817671;77;21091;-74
2022/08/02 08:19:36;;;;;;;11.78;6.40;;;;;;;22.74;67.12;99628.34;1833045;77;20973;-75
2022/08/02 08:22:04;;;;;;;7.87;6.00;;;;;;;22.79;67.37;99627.19;1831525;78;20987;-73
2022/08/02 08:24:31;;;;;;;8.68;5.97;;;;;;;22.87;67.54;99627.96;1814186;78;20992;-72
2022/08/02 08:26:58;;;;;;;7.22;6.28;;;;;;;22.91;67.32;99630.02;1830895;78;21973;-74
2022/08/02 08:29:25;;;;;;;7.80;6.05;;;;;;;22.96;66.66;99634.20;1817057;78;21006;-72
2022/08/02 08:31:52;;;;;;;7.17;5.83;;;;;;;23.01;66.68;99633.55;1820723;78;21018;-76
2022/08/02 08:34:19;;;;;;;8.65;6.65;;;;;;;23.11;66.58;99636.57;1829250;78;21232;-73
2022/08/02 08:36:46;;;;;;;9.93;6.50;;;;;;;23.20;66.29;99635.24;1822091;78;21341;-73
2022/08/02 08:39:13;;;;;;;9.60;6.42;;;;;;;23.23;66.20;99636.14;1812762;78;21887;-77
2022/08/02 08:41:42;;;;;;;8.18;6.70;;;;;;;23.26;65.87;99636.20;1830752;76;21488;-72
2022/08/02 08:44:09;;;;;;;10.43;6.78;;;;;;;23.22;65.92;99631.80;1816000;77;21109;-72
2022/08/02 08:46:36;;;;;;;8.88;6.62;;;;;;;23.22;66.27;99625.59;1824238;78;21340;-74
2022/08/02 08:49:25;;;;;;;7.85;6.40;;;;;;;23.23;66.28;99626.70;1808880;78;21075;-71
2022/08/02 08:51:54;;;;;;;10.10;6.97;;;;;;;23.21;65.96;99620.72;1823405;78;21819;-72
2022/08/02 08:54:24;;;;;;;8.93;7.30;;;;;;;23.18;65.51;99631.95;1825694;77;20970;-72
2022/08/02 08:56:52;;;;;;;10.58;7.50;;;;;;;23.15;65.79;99632.38;1808639;78;21477;-76
2022/08/02 08:59:18;;;;;;;9.50;7.28;;;;;;;23.12;66.19;99626.09;1820939;78;21041;-73
2022/08/02 09:01:45;;;;;;;9.40;7.00;;;;;;;23.12;66.19;99630.13;1811371;78;20938;-72
2022/08/02 09:04:12;;;;;;;9.18;7.30;;;;;;;23.08;66.24;99636.50;1822714;78;22281;-74
2022/08/02 09:06:39;;;;;;;10.53;7.60;;;;;;;23.10;66.34;99635.75;1813348;78;21089;-74
2022/08/02 09:09:06;;;;;;;10.40;7.17;;;;;;;23.18;66.38;99635.99;1825627;77;21038;-74
2022/08/02 09:11:33;;;;;;;9.28;7.40;;;;;;;23.23;66.39;99631.27;1813350;78;21047;-74
2022/08/02 09:14:01;;;;;;;9.80;7.15;;;;;;;23.28;66.63;99632.27;1808743;78;21081;-75
2022/08/02 09:16:39;;;;;;;8.78;7.10;;;;;;;23.33;66.48;99633.76;1803058;77;22220;-74
2022/08/02 09:19:21;;;;;;;9.30;7.30;;;;;;;23.47;66.49;99639.03;1807865;77;21766;-73
2022/08/02 09:22:03;;;;;;;8.90;7.22;;;;;;;23.59;66.20;99631.88;1777905;79;20954;-73
2022/08/02 09:24:44;;;;;;;12.47;7.40;;;;;;;23.64;65.76;99632.86;1808148;78;21118;-73
2022/08/02 09:27:13;;;;;;;11.05;7.62;;;;;;;23.77;65.84;99631.05;1802350;77;20990;-72
2022/08/02 09:29:40;;;;;;;13.95;7.70;;;;;;;23.85;65.23;99630.22;1774272;79;21800;-72
2022/08/02 09:32:07;;;;;;;8.55;7.15;;;;;;;23.86;64.42;99632.39;1809634;78;21608;-72
2022/08/02 09:34:50;;;;;;;9.13;7.25;;;;;;;23.85;64.86;99628.88;1775103;79;21527;-68
2022/08/02 09:37:27;;;;;;;9.68;6.90;;;;;;;23.89;64.98;99631.92;1806197;77;21415;-70
2022/08/02 09:39:54;;;;;;;8.63;7.20;;;;;;;23.88;64.78;99623.02;1767592;79;21483;-73
2022/08/02 09:42:20;;;;;;;10.60;7.40;;;;;;;23.83;64.87;99626.90;1806554;78;21798;-74
2022/08/02 09:44:56;;;;;;;10.45;7.10;;;;;;;23.85;65.24;99624.83;1771574;79;20930;-73
2022/08/02 09:47:24;;;;;;;11.93;7.05;;;;;;;23.86;65.35;99627.00;1806115;78;21022;-72
2022/08/02 09:49:54;;;;;;;10.95;7.45;;;;;;;23.83;65.19;99626.90;1774453;79;21030;-74
2022/08/02 09:52:29;;;;;;;8.75;7.12;;;;;;;23.78;65.32;99627.30;1765614;78;21036;-73
2022/08/02 09:55:06;;;;;;;8.23;7.33;;;;;;;23.75;65.70;99630.45;1805128;78;21833;-70
2022/08/02 09:57:36;;;;;;;9.70;7.75;;;;;;;23.68;65.76;99624.61;1767619;81;21157;-71
2022/08/02 10:00:05;;;;;;;8.88;7.25;;;;;;;23.61;65.92;99625.72;1801386;78;20995;-70
2022/08/02 10:02:34;;;;;;;8.35;7.30;;;;;;;23.54;65.93;99630.33;1755485;80;21006;-70
2022/08/02 10:05:00;;;;;;;8.60;7.47;;;;;;;23.47;66.12;99626.38;1808777;78;21066;-71
2022/08/02 10:07:29;;;;;;;8.03;6.90;;;;;;;23.35;66.41;99637.05;1784264;79;21417;-75
2022/08/02 10:09:57;;;;;;;8.00;7.15;;;;;;;23.26;66.69;99639.75;1795507;78;21068;-74
2022/08/02 10:12:25;;;;;;;8.73;7.78;;;;;;;23.20;67.08;99640.63;1789440;78;21089;-75
2022/08/02 10:14:51;;;;;;;8.65;7.25;;;;;;;23.21;67.47;99641.45;1793255;78;20986;-74
2022/08/02 10:17:18;;;;;;;9.95;7.47;;;;;;;23.16;67.68;99644.80;1821923;77;20978;-74
2022/08/02 10:19:47;;;;;;;10.53;7.03;;;;;;;23.04;67.67;99643.87;1819439;78;21920;-74
2022/08/02 10:22:14;;;;;;;8.88;7.00;;;;;;;22.97;67.94;99649.84;1737638;82;21037;-74
2022/08/02 10:24:41;;;;;;;7.72;6.83;;;;;;;22.99;68.22;99651.28;1789355;79;21014;-74
2022/08/02 10:27:14;;;;;;;9.48;7.40;;;;;;;23.03;68.20;99655.70;1776412;79;21442;-73
2022/08/02 10:29:42;;;;;;;7.85;6.65;;;;;;;23.01;68.13;99655.10;1791000;78;20979;-74
2022/08/02 10:32:12;;;;;;;16.60;7.42;;;;;;;22.97;68.17;99653.88;1768086;81;22879;-73
2022/08/02 10:34:49;;;;;;;8.48;6.92;;;;;;;22.92;68.15;99655.07;1768153;81;21382;-73
2022/08/02 10:37:16;;;;;;;7.90;6.37;;;;;;;22.88;68.08;99655.22;1769697;79;20945;-73
2022/08/02 10:39:44;;;;;;;8.45;7.05;;;;;;;22.77;68.03;99659.39;1769440;79;20997;-74
2022/08/02 10:42:12;;;;;;;7.78;6.25;;;;;;;22.71;68.32;99657.06;1799727;79;21030;-74
2022/08/02 10:44:40;;;;;;;7.00;6.05;;;;;;;22.68;68.49;99661.55;1782451;78;21966;-74
2022/08/02 10:47:23;;;;;;;6.92;6.20;;;;;;;22.66;68.33;99660.09;1768102;79;20979;-73
2022/08/02 10:49:56;;;;;;;8.78;6.55;;;;;;;22.55;68.23;99655.70;1768463;81;21070;-74
2022/08/02 10:52:32;;;;;;;9.70;6.10;;;;;;;22.49;68.62;99660.63;1773932;79;21005;-74
2022/08/02 10:55:09;;;;;;;7.92;6.60;;;;;;;22.48;68.72;99663.52;1787986;78;21101;-74
2022/08/02 10:57:36;;;;;;;7.70;6.90;;;;;;;22.37;68.95;99663.69;1792983;78;21907;-74
2022/08/02 11:00:25;;;;;;;10.23;7.37;;;;;;;22.24;69.54;99665.94;1803818;77;21414;-74
2022/08/02 11:02:56;;;;;;;8.83;6.80;;;;;;;22.14;70.07;99667.44;1798322;79;21002;-74
2022/08/02 11:05:33;;;;;;;8.75;6.70;;;;;;;22.05;70.58;99660.62;1793011;77;21110;-74
2022/08/02 11:08:20;;;;;;;8.23;6.70;;;;;;;22.03;71.08;99665.39;1785755;79;21522;-73
2022/08/02 11:10:46;;;;;;;6.92;6.22;;;;;;;22.02;71.33;99665.09;1754513;79;21716;-73
2022/08/02 11:13:16;;;;;;;7.70;6.90;;;;;;;21.98;71.64;99668.19;1794928;78;20995;-72
2022/08/02 11:16:03;;;;;;;7.80;7.00;;;;;;;21.96;71.67;99666.75;1821448;77;21031;-73
2022/08/02 11:18:54;;;;;;;7.67;6.75;;;;;;;21.96;72.05;99660.85;1810928;78;21074;-74
2022/08/02 11:21:26;;;;;;;10.13;6.70;;;;;;;22.00;72.36;99661.23;1813924;77;21027;-72
2022/08/02 11:23:53;;;;;;;8.95;6.97;;;;;;;22.08;72.53;99666.94;1799583;78;21889;-72
2022/08/02 11:26:34;;;;;;;10.60;6.85;;;;;;;22.08;72.71;99665.59;1769543;79;21030;-72
2022/08/02 11:29:03;;;;;;;7.50;6.80;;;;;;;22.11;72.87;99675.42;1809096;78;20983;-72
2022/08/02 11:31:40;;;;;;;11.30;6.70;;;;;;;22.12;72.98;99670.34;1793181;79;21044;-72
2022/08/02 11:34:07;;;;;;;7.50;6.55;;;;;;;22.13;73.17;99668.48;1793027;78;21033;-73
2022/08/02 11:36:49;;;;;;;7.47;6.67;;;;;;;22.16;73.46;99665.35;1768793;79;21893;-73
2022/08/02 11:39:18;;;;;;;7.10;6.10;;;;;;;22.17;73.46;99663.79;1789503;78;20935;-72
2022/08/02 11:41:52;;;;;;;7.45;6.05;;;;;;;22.14;72.96;99662.06;1799064;78;20939;-74
2022/08/02 11:44:18;;;;;;;;;;;;;;;22.04;72.56;99660.31;1806876;78;21039;-73
2022/08/02 11:47:02;;;;;;;7.22;5.75;;;;;;;21.94;72.49;99664.28;1795578;78;20448;-74